Time;durP1;ratioP1;P1;durP2;ratioP2;P2;SDS_P1;SDS_P2;PMS_P1;PMS_P2;Temp;Humidity;BMP_temperature;BMP_pressure;BME280_temperature;BME280_humidity;BME280_pressure;Samples;Min_cycle;Max_cycle;Signal;HPM_P1;HPM_P2
2023/06/08 00:01:43;;;;;;;12.40;4.57;;;18.70;77.30;;;;;;5097030;28;20111;-77
2023/06/08 00:04:09;;;;;;;15.38;4.82;;;18.60;77.70;;;;;;5116429;28;20027;-77
2023/06/08 00:06:37;;;;;;;8.40;4.28;;;18.60;77.80;;;;;;5119826;28;20024;-77
2023/06/08 00:09:06;;;;;;;18.38;5.60;;;18.60;77.90;;;;;;5116731;28;20036;-77
2023/06/08 00:11:32;;;;;;;9.10;4.55;;;18.60;77.80;;;;;;5116968;28;20419;-77
2023/06/08 00:13:59;;;;;;;14.80;5.45;;;18.60;78.10;;;;;;5118060;28;20103;-77
2023/06/08 00:16:27;;;;;;;19.80;6.10;;;18.50;78.10;;;;;;5116830;28;20016;-77
2023/06/08 00:18:56;;;;;;;13.40;5.22;;;18.30;78.60;;;;;;5116637;28;20028;-76
2023/06/08 00:21:26;;;;;;;10.73;4.90;;;18.10;79.20;;;;;;5116114;28;20035;-77
2023/06/08 00:23:52;;;;;;;15.32;5.68;;;18.20;79.40;;;;;;5115510;28;20036;-77
2023/06/08 00:26:18;;;;;;;12.23;5.38;;;18.20;79.50;;;;;;5115421;28;20039;-77
2023/06/08 00:28:48;;;;;;;10.43;4.57;;;18.10;79.40;;;;;;5113347;28;20084;-77
2023/06/08 00:31:16;;;;;;;10.57;4.40;;;18.10;79.50;;;;;;5114086;28;20062;-77
2023/06/08 00:33:42;;;;;;;16.20;5.72;;;18.20;79.40;;;;;;5114184;28;20121;-77
2023/06/08 00:36:08;;;;;;;11.15;4.78;;;18.30;79.20;;;;;;5111811;28;20472;-77
2023/06/08 00:38:36;;;;;;;15.38;5.40;;;18.10;79.20;;;;;;5095312;28;20040;-77
2023/06/08 00:41:02;;;;;;;14.98;5.97;;;18.20;79.60;;;;;;5113430;28;20028;-77
2023/06/08 00:43:27;;;;;;;10.95;4.55;;;18.20;79.40;;;;;;5094405;28;20039;-77
2023/06/08 00:45:56;;;;;;;15.52;5.65;;;18.20;79.50;;;;;;5111532;28;20040;-77
2023/06/08 00:48:23;;;;;;;16.02;5.80;;;18.00;79.70;;;;;;5111196;28;20024;-77
2023/06/08 00:50:50;;;;;;;9.35;4.07;;;17.90;80.00;;;;;;5080708;28;20409;-77
2023/06/08 00:53:16;;;;;;;14.32;5.45;;;18.00;80.00;;;;;;5070045;28;20029;-77
2023/06/08 00:55:43;;;;;;;15.98;5.68;;;18.10;79.60;;;;;;5070638;28;20055;-77
2023/06/08 00:58:13;;;;;;;17.95;6.05;;;18.10;79.50;;;;;;5068604;28;20037;-77
2023/06/08 01:00:40;;;;;;;15.07;5.18;;;18.00;79.80;;;;;;5068720;28;20041;-76
2023/06/08 01:03:06;;;;;;;13.63;5.30;;;17.80;80.40;;;;;;5066761;28;20033;-77
2023/06/08 01:05:32;;;;;;;11.25;4.13;;;17.70;80.70;;;;;;5069490;28;20025;-77
2023/06/08 01:08:20;;;;;;;11.45;4.97;;;17.80;80.70;;;;;;5068842;28;20092;-77
2023/06/08 01:11:12;;;;;;;10.65;4.82;;;17.90;80.60;;;;;;5068504;28;20033;-77
2023/06/08 01:14:13;;;;;;;14.38;5.22;;;17.70;80.60;;;;;;5069003;28;20057;-77
2023/06/08 01:16:44;;;;;;;14.68;5.75;;;17.70;80.90;;;;;;5068867;28;20465;-77
2023/06/08 01:19:17;;;;;;;17.13;5.50;;;17.70;80.90;;;;;;5068106;28;20033;-77
2023/06/08 01:22:14;;;;;;;14.02;5.50;;;17.60;81.10;;;;;;5068623;28;20025;-77
2023/06/08 01:24:49;;;;;;;10.23;4.80;;;17.50;81.40;;;;;;5063989;28;20461;-77
2023/06/08 01:27:21;;;;;;;10.52;5.22;;;17.50;81.40;;;;;;5067412;28;20446;-77
2023/06/08 01:29:48;;;;;;;11.75;5.03;;;17.50;81.50;;;;;;5068446;28;20033;-77
2023/06/08 01:32:13;;;;;;;11.35;5.32;;;17.60;81.50;;;;;;5050742;28;20044;-77
2023/06/08 01:34:40;;;;;;;15.20;5.30;;;17.70;81.10;;;;;;5067710;28;20025;-77
2023/06/08 01:37:16;;;;;;;16.23;5.85;;;17.50;81.20;;;;;;5068999;28;20029;-77
2023/06/08 01:40:05;;;;;;;16.83;6.40;;;17.50;81.50;;;;;;5068906;28;20035;-77
2023/06/08 01:42:34;;;;;;;14.68;6.45;;;17.30;81.90;;;;;;5069158;28;20040;-77
2023/06/08 01:45:27;;;;;;;13.57;5.45;;;17.40;82.10;;;;;;5068853;28;20032;-77
2023/06/08 01:48:05;;;;;;;13.43;5.13;;;17.30;82.10;;;;;;5066208;28;20033;-77
2023/06/08 01:50:33;;;;;;;13.30;5.95;;;17.40;81.90;;;;;;5065514;28;20057;-77
2023/06/08 01:53:00;;;;;;;13.25;6.20;;;17.40;81.60;;;;;;5067739;28;20357;-77
2023/06/08 01:55:27;;;;;;;14.57;5.78;;;17.30;81.90;;;;;;5069640;28;20025;-77
2023/06/08 01:57:54;;;;;;;18.60;6.10;;;17.30;82.10;;;;;;5068313;28;20029;-77
2023/06/08 02:00:20;;;;;;;14.15;5.80;;;17.20;82.30;;;;;;5068546;28;20088;-77
2023/06/08 02:02:46;;;;;;;18.20;6.28;;;17.20;82.30;;;;;;5066970;28;20530;-77
2023/06/08 02:05:13;;;;;;;18.98;6.32;;;17.30;82.30;;;;;;5067552;28;20093;-77
2023/06/08 02:07:39;;;;;;;17.15;5.72;;;17.30;82.20;;;;;;5069704;28;20179;-77
2023/06/08 02:10:07;;;;;;;12.13;5.07;;;17.20;82.30;;;;;;5068137;28;20039;-77
2023/06/08 02:12:33;;;;;;;14.50;6.28;;;17.30;82.30;;;;;;5070981;28;20052;-77
2023/06/08 02:14:59;;;;;;;20.23;6.45;;;17.30;82.30;;;;;;5069863;28;20421;-77
2023/06/08 02:17:29;;;;;;;12.43;5.15;;;17.20;82.40;;;;;;5070158;28;20086;-77
2023/06/08 02:19:55;;;;;;;17.20;5.60;;;17.10;82.90;;;;;;5069879;28;20029;-77
2023/06/08 02:22:21;;;;;;;13.50;5.70;;;17.10;83.00;;;;;;5070831;28;20025;-77
2023/06/08 02:24:49;;;;;;;15.05;5.90;;;17.10;82.80;;;;;;5071135;28;20093;-77
2023/06/08 02:27:16;;;;;;;14.52;6.05;;;17.00;82.90;;;;;;5070769;28;20033;-76
2023/06/08 02:29:42;;;;;;;14.57;7.13;;;16.90;83.10;;;;;;5070884;28;20033;-77
2023/06/08 02:32:08;;;;;;;16.88;6.65;;;16.90;83.40;;;;;;5071386;28;20033;-77
2023/06/08 02:34:37;;;;;;;17.77;6.95;;;16.70;83.80;;;;;;5070351;28;20060;-78
2023/06/08 02:37:03;;;;;;;15.05;6.93;;;16.50;84.20;;;;;;5071305;28;20070;-77
2023/06/08 02:39:29;;;;;;;14.82;5.97;;;16.30;85.10;;;;;;5070779;28;20029;-77
2023/06/08 02:41:54;;;;;;;14.77;6.38;;;16.20;85.50;;;;;;5069405;28;20033;-77
2023/06/08 02:44:20;;;;;;;17.23;7.18;;;16.30;85.50;;;;;;5069577;28;20056;-77
2023/06/08 02:46:47;;;;;;;15.02;6.10;;;16.40;85.20;;;;;;5068675;28;20033;-77
2023/06/08 02:49:12;;;;;;;16.08;6.50;;;16.30;85.30;;;;;;5068626;28;20029;-77
2023/06/08 02:51:38;;;;;;;12.48;5.28;;;16.50;85.40;;;;;;5099634;28;20075;-77
2023/06/08 02:54:04;;;;;;;12.32;5.97;;;16.60;84.70;;;;;;5109009;28;20028;-77
2023/06/08 02:56:30;;;;;;;14.85;5.82;;;16.60;84.40;;;;;;5108812;28;20024;-77
2023/06/08 02:58:56;;;;;;;13.43;6.00;;;16.80;84.40;;;;;;5108704;28;20365;-77
2023/06/08 03:01:23;;;;;;;13.88;6.35;;;16.70;83.90;;;;;;5090515;28;20024;-77
2023/06/08 03:03:53;;;;;;;10.57;4.90;;;16.90;83.90;;;;;;5109252;28;20067;-77
2023/06/08 03:06:19;;;;;;;15.02;5.35;;;17.00;83.50;;;;;;5110605;28;20035;-77
2023/06/08 03:08:53;;;;;;;11.98;5.20;;;17.00;83.10;;;;;;5110571;28;20039;-77
2023/06/08 03:11:20;;;;;;;13.40;6.00;;;17.00;83.20;;;;;;5110326;28;20024;-77
2023/06/08 03:13:46;;;;;;;17.83;8.32;;;17.00;82.80;;;;;;5110661;28;20450;-77
2023/06/08 03:16:12;;;;;;;11.70;5.53;;;16.80;82.90;;;;;;5111546;28;20024;-77
2023/06/08 03:18:39;;;;;;;17.02;7.20;;;16.70;83.40;;;;;;5110804;28;20027;-77
2023/06/08 03:21:07;;;;;;;15.57;7.20;;;16.70;83.30;;;;;;5111170;28;20082;-77
2023/06/08 03:23:35;;;;;;;13.23;6.65;;;16.60;83.50;;;;;;5110637;28;20056;-77
2023/06/08 03:26:02;;;;;;;20.02;8.38;;;16.40;84.10;;;;;;5110839;28;20020;-77
2023/06/08 03:28:28;;;;;;;13.85;5.43;;;16.40;84.40;;;;;;5110692;28;20020;-77
2023/06/08 03:30:53;;;;;;;15.27;6.85;;;16.60;84.30;;;;;;5107762;28;20051;-77
2023/06/08 03:33:19;;;;;;;18.88;8.55;;;16.60;83.90;;;;;;5106881;28;20047;-78
2023/06/08 03:35:46;;;;;;;17.15;6.95;;;16.60;83.70;;;;;;5088861;28;20031;-77
2023/06/08 03:38:12;;;;;;;11.55;5.82;;;16.60;83.80;;;;;;5106449;28;20047;-77
2023/06/08 03:40:37;;;;;;;17.52;9.48;;;16.60;83.70;;;;;;5089619;28;20028;-78
2023/06/08 03:43:03;;;;;;;20.67;7.88;;;16.60;83.50;;;;;;5110303;28;20029;-77
2023/06/08 03:45:29;;;;;;;16.23;7.35;;;16.60;83.50;;;;;;5095616;28;20036;-78
2023/06/08 03:47:55;;;;;;;13.20;6.50;;;16.60;83.60;;;;;;5115398;28;20036;-78
2023/06/08 03:50:21;;;;;;;17.90;8.20;;;16.60;83.60;;;;;;5116244;28;20119;-77
2023/06/08 03:52:47;;;;;;;11.05;6.00;;;16.70;83.60;;;;;;5116096;28;20036;-78
2023/06/08 03:55:13;;;;;;;13.90;7.07;;;16.70;83.50;;;;;;5098238;28;20050;-77
2023/06/08 03:57:39;;;;;;;19.38;8.40;;;16.70;83.30;;;;;;5115812;28;20024;-77
2023/06/08 04:00:11;;;;;;;18.00;8.32;;;16.70;83.60;;;;;;5118489;28;20024;-77
2023/06/08 04:02:38;;;;;;;15.13;8.52;;;16.60;84.20;;;;;;5118492;28;20050;-78
2023/06/08 04:05:06;;;;;;;13.23;6.78;;;16.50;83.70;;;;;;5117988;28;20447;-78
2023/06/08 04:07:34;;;;;;;14.80;8.30;;;16.50;84.00;;;;;;5119625;28;20032;-78
2023/06/08 04:10:00;;;;;;;13.75;6.95;;;16.50;84.20;;;;;;5119700;28;20091;-77
2023/06/08 04:12:26;;;;;;;14.15;7.32;;;16.50;84.40;;;;;;5101384;28;20072;-77
2023/06/08 04:14:52;;;;;;;17.13;7.10;;;16.70;84.10;;;;;;5102812;28;20044;-78
2023/06/08 04:17:18;;;;;;;13.85;6.68;;;16.70;83.90;;;;;;5120221;28;20050;-77
2023/06/08 04:19:43;;;;;;;12.63;6.95;;;16.70;83.90;;;;;;5101502;28;20032;-77
2023/06/08 04:22:09;;;;;;;10.10;5.22;;;16.80;83.50;;;;;;5116987;28;20032;-78
2023/06/08 04:24:38;;;;;;;10.75;7.38;;;16.80;83.50;;;;;;5114041;28;20029;-78
2023/06/08 04:27:06;;;;;;;12.27;8.07;;;17.00;83.50;;;;;;5093776;28;20096;-77
2023/06/08 04:29:32;;;;;;;19.10;8.75;;;17.00;82.60;;;;;;5111806;28;20040;-78
2023/06/08 04:31:58;;;;;;;15.20;8.15;;;16.90;82.70;;;;;;5111905;28;20081;-78
2023/06/08 04:34:23;;;;;;;7.57;5.20;;;16.90;83.10;;;;;;5112461;28;20118;-78
2023/06/08 04:36:50;;;;;;;16.40;8.30;;;16.90;83.30;;;;;;5110161;28;20028;-78
2023/06/08 04:39:16;;;;;;;13.60;7.95;;;17.00;82.80;;;;;;5110271;28;20537;-78
2023/06/08 04:41:45;;;;;;;19.15;8.70;;;16.80;83.10;;;;;;5093198;28;20024;-78
2023/06/08 04:44:13;;;;;;;16.13;8.07;;;16.70;83.30;;;;;;5111001;28;20039;-77
2023/06/08 04:46:41;;;;;;;13.13;8.13;;;16.70;83.70;;;;;;5104703;28;20020;-77
2023/06/08 04:49:08;;;;;;;17.38;9.68;;;16.70;83.80;;;;;;5105332;28;20024;-77
2023/06/08 04:51:39;;;;;;;18.00;10.68;;;16.60;83.80;;;;;;5105442;28;20538;-78
2023/06/08 04:54:05;;;;;;;14.32;10.13;;;16.30;84.50;;;;;;5107594;28;20040;-77
2023/06/08 04:56:33;;;;;;;20.08;9.57;;;16.10;85.10;;;;;;5090243;28;20063;-78
2023/06/08 04:59:02;;;;;;;15.02;9.20;;;16.10;85.50;;;;;;5108639;28;20032;-77
2023/06/08 05:01:28;;;;;;;15.00;7.70;;;16.10;85.70;;;;;;5089829;28;20384;-78
2023/06/08 05:03:53;;;;;;;17.23;9.93;;;16.10;85.80;;;;;;5110372;28;20205;-78
2023/06/08 05:06:19;;;;;;;14.82;8.45;;;16.20;85.50;;;;;;5091614;28;20050;-79
2023/06/08 05:08:45;;;;;;;13.10;8.23;;;16.30;85.30;;;;;;5091243;28;20039;-77
2023/06/08 05:11:12;;;;;;;15.90;8.35;;;16.40;85.00;;;;;;5110910;28;20027;-77
2023/06/08 05:13:38;;;;;;;17.88;8.98;;;16.50;84.80;;;;;;5090348;28;20498;-78
2023/06/08 05:16:04;;;;;;;16.77;9.93;;;16.60;84.70;;;;;;5108425;28;20036;-78
2023/06/08 05:18:30;;;;;;;14.20;8.45;;;16.70;84.70;;;;;;5110942;28;20039;-79
2023/06/08 05:20:55;;;;;;;15.45;8.65;;;16.70;84.40;;;;;;5107989;28;20071;-78
2023/06/08 05:23:21;;;;;;;13.05;8.07;;;16.60;83.90;;;;;;5106943;28;20032;-78
2023/06/08 05:25:47;;;;;;;15.75;8.63;;;16.70;84.40;;;;;;5109809;28;20028;-78
2023/06/08 05:28:12;;;;;;;15.85;9.07;;;16.80;84.20;;;;;;5090734;28;20032;-77
2023/06/08 05:30:38;;;;;;;20.48;10.40;;;16.90;84.00;;;;;;5091335;28;20093;-78
2023/06/08 05:33:04;;;;;;;16.05;8.27;;;16.80;83.80;;;;;;5110035;28;20064;-77
2023/06/08 05:35:29;;;;;;;15.45;9.63;;;16.70;83.80;;;;;;5111886;28;20012;-78
2023/06/08 05:37:55;;;;;;;10.05;6.85;;;16.60;83.90;;;;;;5093041;28;20530;-78
2023/06/08 05:40:23;;;;;;;15.85;9.88;;;16.40;84.50;;;;;;5110976;28;20481;-78
2023/06/08 05:42:48;;;;;;;14.07;6.90;;;16.50;84.70;;;;;;5111751;28;20025;-79
2023/06/08 05:45:15;;;;;;;10.45;6.72;;;16.40;84.80;;;;;;5108855;28;20047;-78
2023/06/08 05:47:40;;;;;;;12.13;5.75;;;16.50;85.10;;;;;;5093761;28;20029;-68
2023/06/08 05:50:06;;;;;;;13.60;5.53;;;16.80;87.10;;;;;;5094105;28;20064;-68
2023/06/08 05:52:34;;;;;;;8.52;4.47;;;17.20;85.60;;;;;;5094060;28;20473;-68
2023/06/08 05:55:00;;;;;;;8.60;4.30;;;17.60;84.20;;;;;;5093937;28;20044;-69
2023/06/08 05:57:26;;;;;;;10.07;6.03;;;18.00;83.00;;;;;;5093110;28;20047;-69
2023/06/08 05:59:52;;;;;;;11.45;4.43;;;18.30;81.00;;;;;;5067223;28;20032;-69
2023/06/08 06:02:17;;;;;;;7.25;4.10;;;18.50;81.40;;;;;;5093535;28;20028;-69
2023/06/08 06:04:43;;;;;;;10.23;5.13;;;18.70;80.10;;;;;;5093584;28;20103;-69
2023/06/08 06:07:09;;;;;;;9.88;5.63;;;18.90;79.20;;;;;;5092878;28;20024;-69
2023/06/08 06:09:35;;;;;;;14.80;6.72;;;19.00;78.10;;;;;;5092322;28;20388;-68
2023/06/08 06:12:01;;;;;;;11.07;5.03;;;19.10;77.50;;;;;;5093034;28;20060;-68
2023/06/08 06:14:35;;;;;;;14.50;4.60;;;19.20;77.30;;;;;;5093296;28;20430;-69
2023/06/08 06:17:00;;;;;;;9.50;4.90;;;19.20;77.00;;;;;;5082370;28;20028;-68
2023/06/08 06:19:26;;;;;;;9.88;4.75;;;19.30;76.70;;;;;;5093874;28;20047;-69
2023/06/08 06:21:52;;;;;;;10.75;5.18;;;19.40;76.50;;;;;;5093643;28;20086;-69
2023/06/08 06:24:18;;;;;;;6.93;4.22;;;19.50;75.90;;;;;;5093307;28;20476;-68
2023/06/08 06:26:44;;;;;;;13.05;7.20;;;19.60;75.90;;;;;;5092545;28;20403;-69
2023/06/08 06:29:10;;;;;;;9.40;5.78;;;19.70;75.50;;;;;;5092035;28;20147;-69
2023/06/08 06:31:35;;;;;;;11.32;5.40;;;19.80;75.70;;;;;;5090431;28;20028;-70
2023/06/08 06:34:01;;;;;;;12.10;6.30;;;19.80;75.10;;;;;;5091495;28;20058;-69
2023/06/08 06:36:27;;;;;;;15.85;7.30;;;19.80;74.90;;;;;;5091896;28;20043;-69
2023/06/08 06:38:52;;;;;;;12.40;5.35;;;19.60;74.40;;;;;;5074428;28;20036;-69
2023/06/08 06:41:18;;;;;;;11.82;5.47;;;19.30;75.40;;;;;;5078130;28;20099;-69
2023/06/08 06:43:43;;;;;;;14.18;7.57;;;19.10;75.80;;;;;;5091793;28;20112;-69
2023/06/08 06:46:09;;;;;;;14.98;6.25;;;19.10;76.00;;;;;;5093510;28;20032;-69
2023/06/08 06:48:35;;;;;;;11.02;5.32;;;18.80;76.40;;;;;;5058120;28;20495;-69
2023/06/08 06:51:01;;;;;;;15.52;7.95;;;18.90;77.20;;;;;;5093675;28;20105;-75
2023/06/08 06:53:26;;;;;;;15.68;8.40;;;18.90;76.80;;;;;;5074532;28;20028;-76
2023/06/08 06:55:52;;;;;;;15.07;6.22;;;18.80;76.50;;;;;;5093422;28;20114;-83
2023/06/08 06:58:19;;;;;;;10.73;6.30;;;18.60;77.20;;;;;;5093380;28;20035;-86
2023/06/08 07:00:45;;;;;;;9.60;6.43;;;18.60;77.60;;;;;;5093906;28;20032;-83
2023/06/08 07:03:11;;;;;;;14.82;7.75;;;18.40;77.70;;;;;;5075822;28;20056;-84
2023/06/08 07:05:37;;;;;;;13.13;6.18;;;18.30;78.40;;;;;;5093302;28;20025;-86
2023/06/08 07:08:03;;;;;;;14.88;7.50;;;18.40;78.40;;;;;;5093565;28;20516;-85
2023/06/08 07:10:29;;;;;;;11.30;6.60;;;18.40;78.30;;;;;;5093209;28;20071;-85
2023/06/08 07:12:56;;;;;;;11.73;7.40;;;18.40;78.20;;;;;;5093506;28;20495;-85
2023/06/08 07:15:22;;;;;;;15.95;7.10;;;18.30;78.60;;;;;;5059067;28;20485;-86
2023/06/08 07:17:48;;;;;;;12.95;7.65;;;18.20;79.70;;;;;;5094698;28;20036;-86
2023/06/08 07:20:14;;;;;;;18.55;9.13;;;18.20;79.50;;;;;;5096879;28;20055;-84
2023/06/08 07:22:40;;;;;;;11.60;7.45;;;18.20;79.70;;;;;;5097413;28;20038;-85
2023/06/08 07:25:06;;;;;;;15.05;7.18;;;18.20;79.80;;;;;;5096742;28;20016;-86
2023/06/08 07:27:32;;;;;;;10.82;6.97;;;18.20;79.80;;;;;;5096731;28;20024;-86
2023/06/08 07:29:58;;;;;;;14.07;7.47;;;18.30;79.90;;;;;;5096876;28;20069;-82
2023/06/08 07:32:26;;;;;;;11.32;6.75;;;18.40;79.70;;;;;;5096147;28;20040;-85
2023/06/08 07:34:52;;;;;;;10.20;5.80;;;18.40;79.40;;;;;;5078810;28;20403;-84
2023/06/08 07:37:18;;;;;;;14.50;6.55;;;18.40;78.90;;;;;;5079044;28;20028;-85
2023/06/08 07:39:43;;;;;;;12.82;6.50;;;18.40;78.50;;;;;;5078828;28;20113;-84
2023/06/08 07:42:09;;;;;;;15.68;6.80;;;18.40;78.20;;;;;;5096746;28;20370;-85
2023/06/08 07:44:35;;;;;;;11.77;6.97;;;18.40;78.40;;;;;;5078764;28;20024;-84
2023/06/08 07:47:01;;;;;;;14.13;7.57;;;18.40;78.30;;;;;;5078472;28;20459;-82
2023/06/08 07:49:28;;;;;;;12.60;7.72;;;18.50;78.50;;;;;;5078950;28;20039;-86
2023/06/08 07:51:54;;;;;;;13.00;6.63;;;18.40;78.50;;;;;;5097018;28;20055;-86
2023/06/08 07:54:19;;;;;;;13.15;7.07;;;18.40;79.00;;;;;;5078765;28;20115;-84
2023/06/08 07:56:49;;;;;;;12.88;6.03;;;18.40;79.40;;;;;;5096245;28;20024;-82
2023/06/08 07:59:15;;;;;;;12.27;6.68;;;18.60;79.70;;;;;;5078103;28;20039;-85
2023/06/08 08:01:42;;;;;;;14.15;7.28;;;18.70;79.30;;;;;;5096473;28;20035;-81
2023/06/08 08:04:09;;;;;;;17.05;7.10;;;18.80;78.80;;;;;;5096422;28;20024;-83
2023/06/08 08:06:34;;;;;;;9.77;6.05;;;18.90;78.20;;;;;;5078384;28;20487;-84
2023/06/08 08:09:00;;;;;;;14.55;6.75;;;18.90;77.20;;;;;;5096611;28;20020;-83
2023/06/08 08:11:27;;;;;;;17.23;7.68;;;18.80;77.30;;;;;;5078357;28;20468;-83
2023/06/08 08:13:53;;;;;;;16.30;7.32;;;18.80;77.40;;;;;;5084484;28;20062;-80
2023/06/08 08:16:19;;;;;;;13.05;6.30;;;18.70;77.40;;;;;;5094794;28;20032;-80
2023/06/08 08:18:44;;;;;;;13.18;6.13;;;18.70;78.00;;;;;;5089522;28;20032;-80
2023/06/08 08:21:10;;;;;;;18.38;7.18;;;18.70;78.20;;;;;;5096418;28;20036;-80
2023/06/08 08:23:37;;;;;;;15.18;6.50;;;18.80;77.90;;;;;;5096122;28;20077;-81
2023/06/08 08:26:03;;;;;;;14.25;7.20;;;18.70;77.90;;;;;;5096327;28;20077;-81
2023/06/08 08:28:28;;;;;;;13.52;6.97;;;18.80;78.10;;;;;;5095435;28;20032;-81
2023/06/08 08:30:54;;;;;;;11.68;6.00;;;18.90;77.70;;;;;;5077954;28;20496;-81
2023/06/08 08:33:20;;;;;;;13.32;6.35;;;18.90;77.90;;;;;;5096160;28;20032;-81
2023/06/08 08:35:46;;;;;;;11.02;6.50;;;18.90;78.10;;;;;;5096041;28;20080;-81
2023/06/08 08:38:11;;;;;;;11.65;7.47;;;18.90;77.60;;;;;;5077807;28;20169;-81
2023/06/08 08:40:37;;;;;;;14.90;7.20;;;18.80;77.10;;;;;;5078291;28;20188;-81
2023/06/08 08:43:08;;;;;;;13.30;6.95;;;18.80;78.10;;;;;;5077637;28;20032;-81
2023/06/08 08:45:35;;;;;;;12.52;6.60;;;18.80;78.50;;;;;;5078123;28;20028;-81
2023/06/08 08:48:01;;;;;;;19.90;8.40;;;18.90;78.50;;;;;;5095881;28;20510;-81
2023/06/08 08:50:33;;;;;;;18.55;7.32;;;18.90;78.20;;;;;;5095507;28;20058;-81
2023/06/08 08:53:00;;;;;;;16.33;8.02;;;19.00;77.90;;;;;;5095658;28;20057;-81
2023/06/08 08:55:33;;;;;;;13.68;6.35;;;19.00;77.90;;;;;;5095993;28;20032;-83
2023/06/08 08:58:01;;;;;;;17.88;6.97;;;18.90;78.30;;;;;;5095373;28;20032;-84
2023/06/08 09:00:27;;;;;;;12.32;6.95;;;19.00;78.20;;;;;;5095007;28;20028;-83
2023/06/08 09:02:53;;;;;;;14.60;7.40;;;19.10;77.90;;;;;;5095534;28;20031;-82
2023/06/08 09:05:19;;;;;;;12.38;7.00;;;19.00;77.10;;;;;;5094686;28;20104;-80
2023/06/08 09:07:45;;;;;;;11.07;6.38;;;19.00;77.20;;;;;;5095155;28;20126;-81
2023/06/08 09:10:21;;;;;;;10.60;5.38;;;19.00;77.40;;;;;;5094813;28;20036;-83
2023/06/08 09:12:48;;;;;;;15.30;6.93;;;19.00;77.90;;;;;;5095361;28;20450;-81
2023/06/08 09:15:28;;;;;;;13.48;6.80;;;19.10;78.00;;;;;;5095018;28;20029;-81
2023/06/08 09:17:55;;;;;;;11.57;5.95;;;19.10;77.70;;;;;;5095290;28;20039;-82
2023/06/08 09:20:31;;;;;;;12.75;7.15;;;19.10;77.40;;;;;;5095195;28;20035;-81
2023/06/08 09:22:57;;;;;;;10.60;6.15;;;19.10;77.60;;;;;;5077070;28;20475;-81
2023/06/08 09:25:37;;;;;;;14.88;6.80;;;19.20;77.70;;;;;;5095097;28;20020;-78
2023/06/08 09:28:22;;;;;;;13.18;6.30;;;19.40;77.40;;;;;;5076256;28;20024;-81
2023/06/08 09:30:48;;;;;;;14.02;6.32;;;19.50;77.00;;;;;;5094426;28;20024;-81
2023/06/08 09:33:20;;;;;;;11.48;5.82;;;19.70;77.60;;;;;;5093817;28;20056;-81
2023/06/08 09:35:47;;;;;;;15.15;6.50;;;20.10;76.70;;;;;;5094783;28;20061;-80
2023/06/08 09:38:20;;;;;;;12.23;5.78;;;20.40;76.40;;;;;;5094459;28;20035;-81
2023/06/08 09:40:46;;;;;;;12.65;6.28;;;20.80;75.30;;;;;;5074543;28;20525;-83
2023/06/08 09:43:12;;;;;;;18.98;6.80;;;21.00;73.50;;;;;;5073351;28;20120;-82
2023/06/08 09:45:47;;;;;;;12.52;6.13;;;21.00;72.40;;;;;;5074497;28;20146;-81
2023/06/08 09:48:13;;;;;;;13.07;5.80;;;21.20;72.40;;;;;;5074294;28;20028;-80
2023/06/08 09:50:39;;;;;;;16.38;6.43;;;21.30;72.90;;;;;;5076001;28;20405;-81
2023/06/08 09:53:10;;;;;;;8.27;5.10;;;21.40;71.10;;;;;;5093712;28;20028;-82
2023/06/08 09:55:36;;;;;;;12.85;5.28;;;21.50;71.80;;;;;;5076443;28;20124;-83
2023/06/08 09:58:03;;;;;;;17.85;5.55;;;21.60;71.30;;;;;;5076625;28;20055;-83
2023/06/08 10:00:30;;;;;;;9.70;4.60;;;21.80;71.20;;;;;;5094491;28;20411;-83
2023/06/08 10:03:16;;;;;;;10.57;5.45;;;22.00;71.60;;;;;;5095026;28;20032;-84
2023/06/08 10:05:46;;;;;;;9.50;5.20;;;22.20;70.70;;;;;;5094342;28;20024;-82
2023/06/08 10:08:16;;;;;;;11.30;4.60;;;22.40;69.90;;;;;;5094525;28;20409;-81
2023/06/08 10:10:42;;;;;;;9.15;4.53;;;22.40;69.90;;;;;;5094231;28;20486;-81
2023/06/08 10:13:10;;;;;;;10.52;5.18;;;22.40;70.70;;;;;;5059967;28;20036;-69
2023/06/08 10:15:36;;;;;;;13.30;5.35;;;22.70;70.60;;;;;;5093496;28;20439;-70
2023/06/08 10:18:03;;;;;;;10.90;4.68;;;23.00;71.10;;;;;;5093392;28;20040;-70
2023/06/08 10:20:30;;;;;;;13.63;5.28;;;23.10;69.00;;;;;;5093356;28;20128;-70
2023/06/08 10:23:00;;;;;;;9.88;3.85;;;23.30;68.90;;;;;;5093700;28;20028;-70
2023/06/08 10:25:30;;;;;;;9.55;4.57;;;23.40;69.70;;;;;;5075463;28;20111;-68
2023/06/08 10:28:06;;;;;;;10.30;5.07;;;23.60;68.20;;;;;;5093019;28;20028;-69
2023/06/08 10:30:40;;;;;;;12.63;5.70;;;23.70;68.70;;;;;;5093752;28;20040;-69
2023/06/08 10:33:08;;;;;;;11.15;5.03;;;23.90;67.60;;;;;;5093537;28;20031;-69
2023/06/08 10:35:34;;;;;;;9.45;4.53;;;23.90;67.10;;;;;;5093297;28;20034;-69
2023/06/08 10:38:14;;;;;;;10.20;3.75;;;23.90;67.00;;;;;;5093565;28;20070;-67
2023/06/08 10:40:46;;;;;;;8.77;4.10;;;23.90;67.90;;;;;;5093529;28;20435;-67
2023/06/08 10:43:12;;;;;;;7.68;3.65;;;23.70;67.30;;;;;;5093111;28;20116;-67
2023/06/08 10:45:43;;;;;;;9.88;4.05;;;23.70;67.80;;;;;;5075403;28;20025;-68
2023/06/08 10:48:14;;;;;;;9.85;4.18;;;23.90;68.00;;;;;;5093421;28;20464;-68
2023/06/08 10:50:42;;;;;;;7.63;4.15;;;24.00;67.30;;;;;;5093337;28;20052;-70
2023/06/08 10:53:08;;;;;;;7.82;3.88;;;24.20;66.90;;;;;;5099399;28;20078;-68
2023/06/08 10:55:34;;;;;;;12.55;4.13;;;24.40;66.50;;;;;;5100366;28;20036;-68
2023/06/08 10:58:20;;;;;;;9.80;3.80;;;24.60;66.40;;;;;;5099560;28;20035;-69
2023/06/08 11:01:03;;;;;;;7.82;3.35;;;24.80;66.30;;;;;;5099202;28;20028;-80
2023/06/08 11:03:45;;;;;;;6.93;3.38;;;25.00;66.00;;;;;;5098764;28;20040;-81
2023/06/08 11:06:14;;;;;;;7.63;3.60;;;25.10;65.10;;;;;;5097606;28;20452;-81
2023/06/08 11:08:40;;;;;;;7.22;2.97;;;25.30;65.60;;;;;;5098894;28;20111;-79
2023/06/08 11:11:06;;;;;;;8.48;3.17;;;25.40;64.10;;;;;;5091572;28;20142;-79
2023/06/08 11:13:31;;;;;;;7.93;3.38;;;25.50;64.30;;;;;;5082977;28;20043;-81
2023/06/08 11:15:57;;;;;;;9.60;3.10;;;25.50;63.50;;;;;;5101856;28;20070;-82
2023/06/08 11:18:24;;;;;;;7.60;3.42;;;25.40;63.20;;;;;;5101318;28;20035;-83
2023/06/08 11:20:50;;;;;;;6.65;3.35;;;25.40;62.90;;;;;;5101232;28;20036;-81
2023/06/08 11:23:16;;;;;;;7.60;3.50;;;25.50;62.40;;;;;;5100539;28;20020;-83
2023/06/08 11:25:45;;;;;;;6.47;3.50;;;25.50;63.10;;;;;;5100388;28;20027;-80
2023/06/08 11:28:11;;;;;;;8.93;3.50;;;25.50;63.60;;;;;;5099274;28;20034;-81
2023/06/08 11:30:37;;;;;;;7.40;2.65;;;25.50;63.10;;;;;;5099735;28;20032;-80
2023/06/08 11:33:06;;;;;;;5.80;2.67;;;25.60;64.50;;;;;;5082099;28;20228;-81
2023/06/08 11:35:33;;;;;;;6.00;2.90;;;25.80;62.90;;;;;;5100222;28;20439;-81
2023/06/08 11:37:59;;;;;;;8.68;2.75;;;25.80;62.90;;;;;;5099920;28;20036;-81
2023/06/08 11:40:26;;;;;;;8.93;3.35;;;25.90;63.50;;;;;;5100056;28;20077;-80
2023/06/08 11:42:52;;;;;;;10.75;3.17;;;26.10;62.40;;;;;;5099669;28;20422;-81
2023/06/08 11:45:18;;;;;;;6.57;3.00;;;26.20;62.80;;;;;;5100761;28;20032;-81
2023/06/08 11:47:45;;;;;;;8.00;3.53;;;26.40;63.20;;;;;;5100038;28;20024;-79
2023/06/08 11:50:14;;;;;;;6.07;3.17;;;26.40;61.80;;;;;;5111818;28;20468;-79
2023/06/08 11:52:42;;;;;;;8.25;3.83;;;26.60;61.70;;;;;;5120073;28;20038;-80
2023/06/08 11:55:13;;;;;;;9.07;3.15;;;26.60;61.20;;;;;;5120541;28;20053;-81
2023/06/08 11:57:53;;;;;;;9.15;2.95;;;26.60;61.10;;;;;;5120050;28;20024;-80
2023/06/08 12:00:22;;;;;;;4.47;2.88;;;26.50;62.60;;;;;;5120376;28;20115;-81
2023/06/08 12:02:49;;;;;;;5.90;2.38;;;26.60;61.20;;;;;;5119396;28;20020;-82
2023/06/08 12:05:17;;;;;;;8.93;3.00;;;26.50;60.80;;;;;;5087475;28;20036;-79
2023/06/08 12:07:57;;;;;;;5.43;2.72;;;26.60;61.50;;;;;;5096537;28;20405;-81
2023/06/08 12:10:38;;;;;;;6.15;3.15;;;26.80;61.20;;;;;;5097062;28;20165;-84
2023/06/08 12:13:08;;;;;;;6.38;2.65;;;26.90;61.60;;;;;;5078286;28;20036;-69
2023/06/08 12:15:36;;;;;;;7.60;2.85;;;26.90;60.70;;;;;;5095361;28;20051;-68
2023/06/08 12:18:03;;;;;;;8.05;3.10;;;27.00;60.60;;;;;;5095954;28;20032;-69
2023/06/08 12:20:35;;;;;;;5.47;3.08;;;27.00;60.90;;;;;;5095039;28;20032;-69
2023/06/08 12:23:01;;;;;;;6.10;2.90;;;27.00;60.10;;;;;;5093721;28;20024;-70
2023/06/08 12:25:28;;;;;;;6.32;2.35;;;27.10;60.60;;;;;;5094429;28;20043;-69
2023/06/08 12:27:54;;;;;;;6.07;2.97;;;27.20;61.40;;;;;;5077376;28;20043;-69
2023/06/08 12:30:21;;;;;;;8.18;2.83;;;27.20;60.50;;;;;;5078829;28;20067;-69
2023/06/08 12:32:47;;;;;;;5.90;2.53;;;27.20;60.50;;;;;;5095480;28;20040;-69
2023/06/08 12:35:13;;;;;;;4.85;2.33;;;27.30;60.40;;;;;;5077680;28;20077;-69
2023/06/08 12:37:38;;;;;;;5.50;2.85;;;27.40;60.20;;;;;;5095806;28;20119;-68
2023/06/08 12:40:06;;;;;;;6.20;2.17;;;27.40;59.10;;;;;;5095729;28;20040;-68
2023/06/08 12:42:32;;;;;;;4.80;2.78;;;27.30;59.80;;;;;;5095815;28;20030;-68